Time;durP1;ratioP1;P1;durP2;ratioP2;P2;SDS_P1;SDS_P2;PMS_P1;PMS_P2;Temp;Humidity;BMP_temperature;BMP_pressure;BME280_temperature;BME280_humidity;BME280_pressure;Samples;Min_cycle;Max_cycle;Signal;HPM_P1;HPM_P2
2020/12/01 00:00:01;;;;;;;95.47;40.17;;;-2.80;99.90;;;;;;5071723;28;20031;-71
2020/12/01 00:02:26;;;;;;;97.88;40.08;;;-2.80;99.90;;;;;;5072930;28;20032;-71
2020/12/01 00:04:52;;;;;;;92.53;39.92;;;-2.80;99.90;;;;;;5072960;28;20493;-71
2020/12/01 00:07:18;;;;;;;88.82;41.30;;;-2.80;99.90;;;;;;5071648;28;20020;-70
2020/12/01 00:09:44;;;;;;;105.47;43.45;;;-2.80;99.90;;;;;;5071634;28;20484;-72
2020/12/01 00:12:10;;;;;;;102.80;39.75;;;-2.80;99.90;;;;;;5071587;28;20394;-70
2020/12/01 00:14:35;;;;;;;106.65;43.38;;;-2.80;99.90;;;;;;5072853;28;20020;-71
2020/12/01 00:17:01;;;;;;;113.57;43.20;;;-2.80;99.90;;;;;;5071472;28;20020;-70
2020/12/01 00:19:27;;;;;;;179.35;60.25;;;-2.80;99.90;;;;;;5071633;28;20020;-70
2020/12/01 00:21:52;;;;;;;121.00;46.63;;;-2.80;99.90;;;;;;5072499;28;20036;-70
2020/12/01 00:24:18;;;;;;;144.30;56.22;;;-2.80;99.90;;;;;;5072522;28;20027;-70
2020/12/01 00:26:44;;;;;;;145.10;48.15;;;-2.70;99.90;;;;;;5071413;28;20355;-70
2020/12/01 00:29:10;;;;;;;147.02;53.53;;;-2.70;99.90;;;;;;5072776;28;20028;-70
2020/12/01 00:31:38;;;;;;;108.45;39.92;;;-2.70;99.90;;;;;;5071134;28;20024;-70
2020/12/01 00:34:04;;;;;;;110.72;38.75;;;-2.60;99.90;;;;;;5072589;28;20028;-70
2020/12/01 00:36:29;;;;;;;96.05;38.83;;;-2.60;99.90;;;;;;5072762;28;20029;-70
2020/12/01 00:38:55;;;;;;;80.78;35.40;;;-2.60;99.90;;;;;;5071411;28;20409;-70
2020/12/01 00:41:21;;;;;;;94.97;39.90;;;-2.60;99.90;;;;;;5072551;28;20396;-73
2020/12/01 00:43:46;;;;;;;80.82;36.28;;;-2.60;99.90;;;;;;5071363;28;20027;-73
2020/12/01 00:46:12;;;;;;;76.93;31.27;;;-2.60;99.90;;;;;;5072578;28;20020;-74
2020/12/01 00:48:37;;;;;;;74.93;34.70;;;-2.50;99.90;;;;;;5071315;28;20031;-70
2020/12/01 00:51:03;;;;;;;82.97;35.40;;;-2.50;99.90;;;;;;5072481;28;20021;-71
2020/12/01 00:53:31;;;;;;;82.85;34.80;;;-2.50;99.90;;;;;;5072258;28;20027;-70
2020/12/01 00:55:57;;;;;;;73.15;35.65;;;-2.50;99.90;;;;;;5071215;28;20024;-71
2020/12/01 00:58:22;;;;;;;92.45;36.15;;;-2.50;99.90;;;;;;5072414;28;20033;-70
2020/12/01 01:00:49;;;;;;;86.25;35.55;;;-2.50;99.90;;;;;;5071044;28;20398;-71
2020/12/01 01:03:15;;;;;;;83.68;34.35;;;-2.50;99.90;;;;;;5072406;28;20020;-70
2020/12/01 01:05:40;;;;;;;88.53;36.85;;;-2.50;99.90;;;;;;5076234;28;20081;-71
2020/12/01 01:08:06;;;;;;;88.57;36.15;;;-2.50;99.90;;;;;;5076149;28;20436;-70
2020/12/01 01:10:33;;;;;;;122.55;47.83;;;-2.50;99.90;;;;;;5076173;28;20454;-71
2020/12/01 01:13:00;;;;;;;140.32;52.50;;;-2.40;99.90;;;;;;5076035;28;20025;-71
2020/12/01 01:15:29;;;;;;;112.90;48.83;;;-2.40;99.90;;;;;;5075826;28;20118;-70
2020/12/01 01:17:56;;;;;;;108.20;43.65;;;-2.40;99.90;;;;;;5076010;28;20035;-70
2020/12/01 01:20:22;;;;;;;96.80;40.20;;;-2.40;99.90;;;;;;5074580;28;20486;-70
2020/12/01 01:22:47;;;;;;;98.88;42.00;;;-2.40;99.90;;;;;;5075473;28;20040;-70
2020/12/01 01:25:14;;;;;;;99.55;40.58;;;-2.30;99.90;;;;;;5074477;28;20036;-72
2020/12/01 01:27:40;;;;;;;96.20;38.78;;;-2.40;99.90;;;;;;5095594;28;20028;-70
2020/12/01 01:30:07;;;;;;;86.22;34.67;;;-2.40;99.90;;;;;;5095917;28;20397;-70
2020/12/01 01:32:33;;;;;;;93.72;36.78;;;-2.40;99.90;;;;;;5089887;28;20025;-70
2020/12/01 01:34:59;;;;;;;96.25;38.95;;;-2.50;99.90;;;;;;5067034;28;20021;-70
2020/12/01 01:37:25;;;;;;;92.03;35.25;;;-2.60;99.90;;;;;;5054868;28;20061;-70
2020/12/01 01:39:51;;;;;;;109.18;42.60;;;-2.60;99.90;;;;;;5053703;28;20118;-72
2020/12/01 01:42:16;;;;;;;273.88;85.88;;;-2.70;99.90;;;;;;5055303;28;20033;-70
2020/12/01 01:44:42;;;;;;;190.90;59.47;;;-2.70;99.90;;;;;;5063872;28;20020;-73
2020/12/01 01:47:24;;;;;;;159.35;52.70;;;-2.80;99.90;;;;;;5074643;28;20025;-70
2020/12/01 01:49:54;;;;;;;204.77;62.97;;;-2.80;99.90;;;;;;5074984;28;20033;-70
2020/12/01 01:52:31;;;;;;;112.28;42.22;;;-2.90;99.90;;;;;;5073838;28;20036;-70
2020/12/01 01:55:09;;;;;;;88.43;38.33;;;-2.90;99.90;;;;;;5074114;28;20021;-70
2020/12/01 01:57:35;;;;;;;82.30;34.13;;;-3.00;99.90;;;;;;5075454;28;20020;-70
2020/12/01 02:00:07;;;;;;;108.63;43.78;;;-3.00;99.90;;;;;;5073902;28;20099;-71
2020/12/01 02:02:33;;;;;;;250.25;71.75;;;-3.00;99.90;;;;;;5073906;28;20032;-70
2020/12/01 02:04:58;;;;;;;296.77;82.82;;;-3.10;99.90;;;;;;5075253;28;20025;-70
2020/12/01 02:07:25;;;;;;;130.48;40.85;;;-3.10;99.90;;;;;;5075100;28;20024;-70
2020/12/01 02:09:55;;;;;;;91.65;32.20;;;-3.20;99.90;;;;;;5075087;28;20082;-71
2020/12/01 02:12:22;;;;;;;70.18;29.33;;;-3.20;99.90;;;;;;5074956;28;20036;-70
2020/12/01 02:14:58;;;;;;;81.65;29.17;;;-3.30;99.90;;;;;;5072906;28;20371;-71
2020/12/01 02:17:28;;;;;;;196.13;61.72;;;-3.30;99.90;;;;;;5072885;28;20387;-70
2020/12/01 02:19:57;;;;;;;416.70;119.03;;;-3.40;99.90;;;;;;5073094;28;20017;-70
2020/12/01 02:22:26;;;;;;;132.73;48.42;;;-3.40;99.90;;;;;;5073493;28;20047;-70
2020/12/01 02:24:52;;;;;;;84.68;31.52;;;-3.40;99.90;;;;;;5074785;28;20025;-69
2020/12/01 02:27:21;;;;;;;65.53;27.80;;;-3.50;99.90;;;;;;5074780;28;20535;-70
2020/12/01 02:29:50;;;;;;;59.65;26.15;;;-3.50;99.90;;;;;;5074743;28;20427;-70
2020/12/01 02:32:16;;;;;;;120.47;43.60;;;-3.60;99.90;;;;;;5074632;28;20017;-69
2020/12/01 02:34:45;;;;;;;352.38;106.63;;;-3.60;99.90;;;;;;5074341;28;20469;-70
2020/12/01 02:37:15;;;;;;;341.42;96.40;;;-3.70;99.90;;;;;;5073695;28;20025;-70
2020/12/01 02:39:41;;;;;;;189.40;61.30;;;-3.70;99.90;;;;;;5074517;28;20020;-70
2020/12/01 02:42:12;;;;;;;109.75;36.40;;;-3.70;99.90;;;;;;5074342;28;20059;-69
2020/12/01 02:44:38;;;;;;;92.55;34.03;;;-3.80;99.90;;;;;;5074339;28;20020;-70
2020/12/01 02:47:05;;;;;;;77.10;30.95;;;-3.80;99.90;;;;;;5074238;28;20378;-70
2020/12/01 02:49:32;;;;;;;125.90;41.85;;;-3.90;99.90;;;;;;5073058;28;20043;-70
2020/12/01 02:51:58;;;;;;;222.05;67.63;;;-3.90;99.90;;;;;;5074241;28;20028;-70
2020/12/01 02:54:24;;;;;;;225.25;71.63;;;-4.00;99.90;;;;;;5073975;28;20032;-70
2020/12/01 02:56:50;;;;;;;125.68;40.80;;;-4.00;99.90;;;;;;5074083;28;20032;-70
2020/12/01 02:59:16;;;;;;;81.40;32.10;;;-4.10;99.90;;;;;;5073871;28;20081;-71
2020/12/01 03:01:42;;;;;;;80.93;31.70;;;-4.10;99.90;;;;;;5073904;28;20036;-70
2020/12/01 03:04:07;;;;;;;72.32;28.10;;;-4.10;99.90;;;;;;5074066;28;20052;-70
2020/12/01 03:06:33;;;;;;;90.20;35.55;;;-4.10;99.90;;;;;;5073993;28;20470;-69
2020/12/01 03:08:59;;;;;;;124.75;46.25;;;-4.10;99.90;;;;;;5073923;28;20087;-71
2020/12/01 03:11:25;;;;;;;165.13;61.90;;;-4.20;99.90;;;;;;5073829;28;20474;-70
2020/12/01 03:13:50;;;;;;;163.57;54.67;;;-4.20;99.90;;;;;;5073752;28;20024;-71
2020/12/01 03:16:16;;;;;;;76.22;31.40;;;-4.20;99.90;;;;;;5072528;28;20031;-70
2020/12/01 03:18:46;;;;;;;65.97;27.10;;;-4.30;99.90;;;;;;5073364;28;20393;-70
2020/12/01 03:21:14;;;;;;;59.72;23.83;;;-4.30;99.90;;;;;;5072213;28;20047;-70
2020/12/01 03:23:41;;;;;;;49.70;22.70;;;-4.30;99.90;;;;;;5072329;28;20028;-70
2020/12/01 03:26:07;;;;;;;50.25;21.55;;;-4.30;99.90;;;;;;5071543;28;20024;-71
2020/12/01 03:28:32;;;;;;;69.40;31.65;;;-4.20;99.90;;;;;;5073543;28;20029;-70
2020/12/01 03:30:58;;;;;;;73.95;31.20;;;-4.20;99.90;;;;;;5072239;28;20017;-71
2020/12/01 03:33:25;;;;;;;63.30;26.33;;;-4.20;99.90;;;;;;5072330;28;20029;-70
2020/12/01 03:35:51;;;;;;;60.13;24.17;;;-4.20;99.90;;;;;;5073428;28;20021;-70
2020/12/01 03:38:17;;;;;;;48.90;21.92;;;-4.20;99.90;;;;;;5072113;28;20025;-70
2020/12/01 03:40:43;;;;;;;57.45;22.25;;;-4.20;99.90;;;;;;5073251;28;20440;-71
2020/12/01 03:43:09;;;;;;;55.33;24.90;;;-4.30;99.90;;;;;;5073240;28;20081;-70
2020/12/01 03:45:35;;;;;;;61.30;25.27;;;-4.30;99.90;;;;;;5073319;28;20020;-70
2020/12/01 03:48:01;;;;;;;59.17;25.92;;;-4.30;99.90;;;;;;5071897;28;20492;-70
2020/12/01 03:50:28;;;;;;;53.42;23.90;;;-4.40;99.90;;;;;;5071649;28;20040;-70
2020/12/01 03:52:54;;;;;;;49.60;23.63;;;-4.40;99.90;;;;;;5072862;28;20028;-70
2020/12/01 03:55:22;;;;;;;53.42;23.60;;;-4.50;99.90;;;;;;5073168;28;20063;-71
2020/12/01 03:57:47;;;;;;;54.90;24.70;;;-4.50;99.90;;;;;;5072883;28;20123;-70
2020/12/01 04:00:20;;;;;;;50.55;21.77;;;-4.50;99.90;;;;;;5073043;28;20104;-71
2020/12/01 04:02:46;;;;;;;57.72;24.08;;;-4.50;99.90;;;;;;5071794;28;20476;-70
2020/12/01 04:05:12;;;;;;;60.03;26.90;;;-4.50;99.90;;;;;;5073324;28;20138;-71
2020/12/01 04:07:38;;;;;;;57.78;28.00;;;-4.50;99.90;;;;;;5073027;28;20409;-70
2020/12/01 04:10:05;;;;;;;57.40;24.77;;;-4.50;99.90;;;;;;5073279;28;20046;-71
2020/12/01 04:12:31;;;;;;;52.33;21.17;;;-4.60;99.90;;;;;;5072880;28;20043;-70
2020/12/01 04:14:57;;;;;;;54.20;22.88;;;-4.60;99.90;;;;;;5072947;28;20467;-71
2020/12/01 04:17:22;;;;;;;47.45;20.98;;;-4.60;99.90;;;;;;5072886;28;20023;-70
2020/12/01 04:19:49;;;;;;;51.80;24.48;;;-4.70;99.90;;;;;;5072665;28;20096;-70
2020/12/01 04:22:15;;;;;;;59.17;24.08;;;-4.70;99.90;;;;;;5071675;28;20040;-70
2020/12/01 04:24:41;;;;;;;51.40;21.77;;;-4.80;99.90;;;;;;5072553;28;20028;-70
2020/12/01 04:27:11;;;;;;;48.80;21.48;;;-4.70;99.90;;;;;;5072708;28;20025;-70
2020/12/01 04:29:37;;;;;;;51.15;21.35;;;-4.80;99.90;;;;;;5071390;28;20020;-70
2020/12/01 04:32:04;;;;;;;50.47;21.77;;;-4.80;99.90;;;;;;5071414;28;20020;-70
2020/12/01 04:34:29;;;;;;;49.92;20.05;;;-4.80;99.90;;;;;;5072753;28;20104;-70
2020/12/01 04:36:55;;;;;;;46.53;22.15;;;-4.80;99.90;;;;;;5073337;28;20107;-70
2020/12/01 04:39:21;;;;;;;42.80;19.50;;;-4.80;99.90;;;;;;5076754;28;20024;-70
2020/12/01 04:41:47;;;;;;;53.38;23.27;;;-4.90;99.90;;;;;;5075305;28;20059;-71
2020/12/01 04:44:30;;;;;;;83.63;32.08;;;-4.90;99.90;;;;;;5075928;28;20390;-74
2020/12/01 04:46:57;;;;;;;;;;;-4.80;99.90;;;;;;5075553;28;20025;-70
2020/12/01 04:49:34;;;;;;;83.40;32.42;;;-4.80;99.90;;;;;;5076650;28;19904;-70
2020/12/01 04:52:26;;;;;;;64.97;25.35;;;-4.80;99.90;;;;;;5076570;28;20081;-70
2020/12/01 04:55:16;;;;;;;59.42;24.13;;;-4.90;99.90;;;;;;5076584;28;20017;-70
2020/12/01 04:57:53;;;;;;;56.83;22.35;;;-4.80;99.90;;;;;;5076417;28;20021;-70
2020/12/01 05:00:56;;;;;;;55.90;22.33;;;-4.90;99.90;;;;;;5076382;28;20024;-70
2020/12/01 05:03:22;;;;;;;54.47;21.98;;;-4.80;99.90;;;;;;5075079;28;20039;-70
2020/12/01 05:09:04;;;;;;;51.20;20.73;;;-4.90;99.90;;;;;;5076045;28;20050;-70
2020/12/01 05:11:58;;;;;;;56.45;23.27;;;-4.90;99.90;;;;;;5076218;28;20077;-70
2020/12/01 05:14:35;;;;;;;51.88;23.50;;;-4.90;99.90;;;;;;5075962;28;20051;-70
2020/12/01 05:17:07;;;;;;;67.57;25.70;;;-4.90;99.90;;;;;;5074741;28;20416;-70
2020/12/01 05:19:32;;;;;;;77.63;31.05;;;-4.90;99.90;;;;;;5074872;28;20036;-70
2020/12/01 05:21:58;;;;;;;81.57;33.50;;;-4.80;99.90;;;;;;5075843;28;20044;-70
2020/12/01 05:24:23;;;;;;;50.33;24.65;;;-4.80;99.90;;;;;;5074803;28;20142;-70
2020/12/01 05:26:49;;;;;;;46.97;21.10;;;-4.90;99.90;;;;;;5075908;28;20009;-70
2020/12/01 05:29:25;;;;;;;49.67;22.25;;;-4.90;99.90;;;;;;5074658;28;20027;-70
2020/12/01 05:31:51;;;;;;;39.78;17.27;;;-4.90;99.90;;;;;;5075803;28;20024;-70
2020/12/01 05:34:20;;;;;;;44.42;17.35;;;-4.90;99.90;;;;;;5075868;28;20024;-71
2020/12/01 05:36:46;;;;;;;44.85;17.38;;;-4.90;99.90;;;;;;5074449;28;20115;-69
2020/12/01 05:39:18;;;;;;;43.23;18.00;;;-4.90;99.90;;;;;;5075467;28;20012;-71
2020/12/01 05:41:47;;;;;;;39.22;18.05;;;-4.90;99.90;;;;;;5073950;28;20036;-70
2020/12/01 05:44:22;;;;;;;46.00;16.45;;;-4.90;99.90;;;;;;5075354;28;20013;-70
2020/12/01 05:47:11;;;;;;;46.33;18.73;;;-4.90;99.90;;;;;;5071858;28;20555;-70
2020/12/01 05:49:44;;;;;;;35.60;15.23;;;-4.90;99.90;;;;;;5073229;28;20031;-70
2020/12/01 05:52:16;;;;;;;38.30;15.98;;;-4.90;99.90;;;;;;5075014;28;20603;-70
2020/12/01 05:55:08;;;;;;;41.88;17.58;;;-4.90;99.90;;;;;;5075336;28;20533;-70
2020/12/01 05:57:34;;;;;;;47.03;18.55;;;-4.90;99.90;;;;;;5074942;28;20470;-70
2020/12/01 06:00:21;;;;;;;47.97;20.88;;;-4.90;99.90;;;;;;5073840;28;20032;-71
2020/12/01 06:02:59;;;;;;;71.03;30.67;;;-5.00;99.90;;;;;;5075356;28;20036;-70
2020/12/01 06:05:26;;;;;;;72.57;29.90;;;-4.90;99.90;;;;;;5075337;28;20078;-69
2020/12/01 06:07:56;;;;;;;69.30;27.92;;;-4.90;99.90;;;;;;5075081;28;20024;-69
2020/12/01 06:10:44;;;;;;;77.97;33.80;;;-4.90;99.90;;;;;;5075187;28;20111;-69
2020/12/01 06:13:36;;;;;;;59.10;25.90;;;-4.90;99.90;;;;;;5073747;28;20502;-69
2020/12/01 06:16:16;;;;;;;47.88;21.02;;;-4.90;99.90;;;;;;5073472;28;20025;-69
2020/12/01 06:19:00;;;;;;;50.38;20.85;;;-4.90;99.90;;;;;;5074953;28;20027;-70
2020/12/01 06:21:44;;;;;;;53.13;21.58;;;-4.90;99.90;;;;;;5075245;28;20058;-70
2020/12/01 06:24:16;;;;;;;42.13;19.98;;;-4.90;99.90;;;;;;5074877;28;20020;-70
2020/12/01 06:27:20;;;;;;;44.17;18.33;;;-4.90;99.90;;;;;;5074783;28;20025;-70
2020/12/01 06:29:54;;;;;;;47.08;21.70;;;-4.90;99.90;;;;;;5072945;28;20512;-70
2020/12/01 06:32:38;;;;;;;39.42;17.50;;;-4.90;99.90;;;;;;5058932;28;20035;-71
2020/12/01 06:35:44;;;;;;;46.55;16.38;;;-4.90;99.90;;;;;;5053969;28;20052;-72
2020/12/01 06:38:12;;;;;;;40.33;17.08;;;-4.90;99.90;;;;;;5056491;28;20104;-70
2020/12/01 06:40:45;;;;;;;44.83;17.88;;;-4.90;99.90;;;;;;5079694;28;20063;-69
2020/12/01 06:43:21;;;;;;;48.88;18.60;;;-4.90;99.90;;;;;;5094184;28;20031;-71
2020/12/01 06:45:53;;;;;;;43.05;19.35;;;-4.90;99.90;;;;;;5082492;28;20060;-71
2020/12/01 06:48:24;;;;;;;44.88;19.80;;;-4.90;99.90;;;;;;5087811;28;20500;-71
2020/12/01 06:50:55;;;;;;;51.83;22.67;;;-4.90;99.90;;;;;;5080693;28;20025;-71
2020/12/01 06:53:31;;;;;;;50.28;20.42;;;-4.90;99.90;;;;;;5072241;28;20430;-71
2020/12/01 06:56:06;;;;;;;44.15;19.75;;;-4.90;99.90;;;;;;5068681;28;20020;-71
2020/12/01 06:58:36;;;;;;;62.63;22.38;;;-4.80;99.90;;;;;;5072912;28;20044;-71
2020/12/01 07:01:09;;;;;;;50.65;21.70;;;-4.80;99.90;;;;;;5071543;28;20127;-71
2020/12/01 07:03:36;;;;;;;62.10;22.58;;;-4.80;99.90;;;;;;5074838;28;20051;-71
2020/12/01 07:06:23;;;;;;;56.75;24.00;;;-4.80;99.90;;;;;;5072695;28;20025;-71
2020/12/01 07:08:49;;;;;;;60.80;23.42;;;-4.80;99.90;;;;;;5069793;28;20441;-71
2020/12/01 07:11:31;;;;;;;52.92;23.95;;;-4.70;99.90;;;;;;5080818;28;20017;-71
2020/12/01 07:14:15;;;;;;;57.17;22.85;;;-4.60;99.90;;;;;;5081584;28;20031;-71
2020/12/01 07:16:46;;;;;;;59.28;24.38;;;-4.60;99.90;;;;;;5078064;28;20013;-71
2020/12/01 07:19:43;;;;;;;54.30;23.10;;;-4.50;99.90;;;;;;5074928;28;20432;-71
2020/12/01 07:22:15;;;;;;;54.95;21.90;;;-4.40;99.90;;;;;;5074050;28;20064;-71
2020/12/01 07:25:18;;;;;;;43.28;19.70;;;-4.30;99.90;;;;;;5072000;28;20032;-70
2020/12/01 07:28:12;;;;;;;54.08;22.77;;;-4.30;99.90;;;;;;5072714;28;20017;-71
2020/12/01 07:30:59;;;;;;;71.18;28.10;;;-4.20;99.90;;;;;;5071647;28;20028;-70
2020/12/01 07:33:50;;;;;;;79.55;31.50;;;-4.10;99.90;;;;;;5072909;28;20052;-70
2020/12/01 07:36:26;;;;;;;53.20;24.52;;;-4.00;99.90;;;;;;5071568;28;20036;-71
2020/12/01 07:39:24;;;;;;;70.57;29.98;;;-3.90;99.90;;;;;;5072465;28;20029;-71
2020/12/01 07:42:04;;;;;;;81.05;32.80;;;-3.80;99.90;;;;;;5072777;28;20024;-71
2020/12/01 07:44:48;;;;;;;129.23;55.40;;;-3.70;99.90;;;;;;5073219;28;20037;-71
2020/12/01 07:47:15;;;;;;;123.75;48.03;;;-3.60;99.90;;;;;;5073334;28;20021;-71
2020/12/01 07:49:41;;;;;;;205.95;78.85;;;-3.60;99.90;;;;;;5073156;28;20036;-71
2020/12/01 07:52:44;;;;;;;118.63;49.80;;;-3.50;99.90;;;;;;5071837;28;20458;-71
2020/12/01 07:55:23;;;;;;;81.75;36.28;;;-3.30;99.90;;;;;;5070010;28;20107;-71
2020/12/01 07:57:56;;;;;;;107.15;53.97;;;-3.20;99.90;;;;;;5071672;28;20028;-71
2020/12/01 08:00:22;;;;;;;114.18;56.92;;;-3.10;99.90;;;;;;5072982;28;20105;-71
2020/12/01 08:02:48;;;;;;;93.88;45.78;;;-2.90;99.90;;;;;;5072796;28;20109;-71
2020/12/01 08:05:14;;;;;;;105.85;48.67;;;-2.80;99.90;;;;;;5073050;28;20025;-71
2020/12/01 08:07:40;;;;;;;239.35;98.55;;;-2.70;99.90;;;;;;5070219;28;20027;-71
2020/12/01 08:10:09;;;;;;;146.07;65.60;;;-2.60;99.90;;;;;;5071618;28;20020;-71
2020/12/01 08:12:41;;;;;;;94.88;46.70;;;-2.50;99.90;;;;;;5069118;28;20040;-71
2020/12/01 08:15:17;;;;;;;209.48;87.72;;;-2.30;99.90;;;;;;5071727;28;20039;-71
2020/12/01 08:17:43;;;;;;;198.18;85.75;;;-2.20;99.90;;;;;;5072019;28;20029;-72
2020/12/01 08:20:13;;;;;;;95.75;44.55;;;-2.10;99.90;;;;;;5070788;28;20028;-71
2020/12/01 08:22:41;;;;;;;59.53;30.40;;;-2.00;99.90;;;;;;5070597;28;20560;-71
2020/12/01 08:25:12;;;;;;;109.15;43.33;;;-1.90;99.90;;;;;;5072703;28;20021;-71
2020/12/01 08:27:44;;;;;;;96.78;32.65;;;-1.80;99.90;;;;;;5072512;28;20074;-71
2020/12/01 08:30:31;;;;;;;122.05;52.13;;;-1.80;99.90;;;;;;5072466;28;20025;-71
2020/12/01 08:33:08;;;;;;;70.80;30.88;;;-1.70;99.90;;;;;;5072372;28;20417;-73
2020/12/01 08:36:02;;;;;;;65.00;27.85;;;-1.60;99.90;;;;;;5072807;28;20086;-74
2020/12/01 08:38:57;;;;;;;48.30;23.38;;;-1.50;99.90;;;;;;5072735;28;20033;-73
2020/12/01 08:42:08;;;;;;;59.08;23.98;;;-1.50;99.90;;;;;;5071335;28;20581;-73
2020/12/01 08:45:03;;;;;;;43.38;19.95;;;-1.40;99.30;;;;;;5071964;28;20497;-73
2020/12/01 08:47:29;;;;;;;58.40;26.30;;;-1.30;99.40;;;;;;5070205;28;20474;-73
2020/12/01 08:49:55;;;;;;;50.55;22.95;;;-1.30;97.00;;;;;;5070544;28;20013;-74
2020/12/01 08:52:42;;;;;;;60.97;22.27;;;-1.20;95.90;;;;;;5072124;28;20025;-73
2020/12/01 08:55:30;;;;;;;47.35;20.55;;;-1.10;95.50;;;;;;5070998;28;20052;-73
2020/12/01 08:58:05;;;;;;;96.45;39.70;;;-1.10;94.80;;;;;;5071889;28;20025;-73
2020/12/01 09:00:34;;;;;;;209.38;74.38;;;-1.00;94.80;;;;;;5071813;28;20031;-73
2020/12/01 09:03:07;;;;;;;278.90;100.03;;;-0.90;94.20;;;;;;5068285;28;20031;-74
2020/12/01 09:05:36;;;;;;;83.68;30.60;;;-0.90;92.60;;;;;;5071937;28;20013;-73
2020/12/01 09:17:01;;;;;;;54.20;22.65;;;-0.70;92.90;;;;;;5072242;28;20063;-73
2020/12/01 09:22:24;;;;;;;148.80;48.65;;;-0.60;91.50;;;;;;5072740;28;20044;-73
2020/12/01 09:24:51;;;;;;;214.18;66.03;;;-0.50;91.40;;;;;;5074415;28;20016;-74
2020/12/01 09:27:18;;;;;;;107.28;36.00;;;-0.40;91.30;;;;;;5075589;28;20033;-74
2020/12/01 09:29:47;;;;;;;80.85;29.40;;;-0.40;90.90;;;;;;5074030;28;20028;-74
2020/12/01 09:32:20;;;;;;;72.43;29.73;;;-0.40;90.60;;;;;;5074638;28;20411;-73
2020/12/01 09:34:46;;;;;;;;;;;-0.30;92.10;;;;;;5075080;28;20021;-74
2020/12/01 09:37:12;;;;;;;285.35;96.05;;;-0.30;90.00;;;;;;5075708;28;20464;-74
2020/12/01 09:39:38;;;;;;;248.82;85.63;;;-0.20;90.80;;;;;;5075967;28;20009;-74
2020/12/01 09:42:23;;;;;;;111.00;37.55;;;-0.20;89.40;;;;;;5075483;28;20394;-74
2020/12/01 09:45:32;;;;;;;57.33;21.40;;;-0.20;90.60;;;;;;5075719;28;20020;-75
2020/12/01 09:47:44;;;;;;;77.72;32.55;;;-0.10;89.90;;;;;;5080027;28;20413;-74
2020/12/01 09:50:12;;;;;;;;;;;-0.10;90.20;;;;;;5072875;28;20043;-74
2020/12/01 09:52:54;;;;;;;407.38;132.52;;;0.00;92.20;;;;;;5075207;28;19908;-74
2020/12/01 10:08:56;;;;;;;146.00;52.38;;;0.20;90.60;;;;;;5083648;28;20078;-74
2020/12/01 10:34:29;;;;;;;38.08;18.90;;;0.50;87.80;;;;;;5080525;28;20497;-74
2020/12/01 10:36:56;;;;;;;43.08;21.95;;;0.60;88.70;;;;;;5083693;28;20016;-75
2020/12/01 10:39:22;;;;;;;63.53;28.20;;;0.60;89.10;;;;;;5076295;28;20028;-74
2020/12/01 10:41:48;;;;;;;102.22;44.72;;;0.60;88.50;;;;;;5075081;28;20052;-74
2020/12/01 10:45:10;;;;;;;49.72;24.05;;;0.60;89.00;;;;;;5071693;28;20021;-75
2020/12/01 10:47:35;;;;;;;39.60;18.35;;;0.70;90.50;;;;;;5071604;28;20031;-74
2020/12/01 10:50:03;;;;;;;37.40;19.15;;;0.80;90.80;;;;;;5081230;28;20091;-74
2020/12/01 10:52:29;;;;;;;37.35;18.52;;;0.80;88.20;;;;;;5079629;28;20060;-75
2020/12/01 10:54:54;;;;;;;56.15;29.20;;;0.90;88.10;;;;;;5080716;28;20093;-75
2020/12/01 10:57:20;;;;;;;30.73;16.98;;;0.90;87.10;;;;;;5078266;28;20020;-75
2020/12/01 10:59:46;;;;;;;36.38;17.70;;;1.00;86.20;;;;;;5054156;28;20024;-75
2020/12/01 11:02:12;;;;;;;69.75;32.30;;;1.00;83.90;;;;;;5070719;28;20033;-75
2020/12/01 11:04:39;;;;;;;38.72;19.38;;;1.00;83.20;;;;;;5072574;28;20032;-75
2020/12/01 11:07:05;;;;;;;37.83;16.45;;;1.00;80.50;;;;;;5073207;28;20090;-75
2020/12/01 11:09:31;;;;;;;36.72;16.10;;;1.00;81.00;;;;;;5072033;28;20417;-74
2020/12/01 11:11:57;;;;;;;39.33;19.40;;;1.10;81.40;;;;;;5073041;28;20023;-74
2020/12/01 11:14:22;;;;;;;24.92;12.95;;;1.10;82.90;;;;;;5071427;28;20043;-75
2020/12/01 11:16:48;;;;;;;29.48;14.25;;;1.10;79.80;;;;;;5070156;28;20020;-75
2020/12/01 11:19:14;;;;;;;35.28;14.40;;;1.10;79.90;;;;;;5070592;28;20508;-74
2020/12/01 11:21:39;;;;;;;36.83;15.15;;;1.10;79.90;;;;;;5069998;28;20064;-75
2020/12/01 11:24:05;;;;;;;30.00;15.40;;;1.10;78.80;;;;;;5073009;28;20028;-75
2020/12/01 11:26:32;;;;;;;42.58;16.95;;;1.10;79.20;;;;;;5072900;28;20020;-74
2020/12/01 11:28:57;;;;;;;33.45;16.10;;;1.20;79.10;;;;;;5073109;28;20016;-74
2020/12/01 11:31:23;;;;;;;32.35;14.05;;;1.20;82.40;;;;;;5072935;28;20025;-75
2020/12/01 11:34:07;;;;;;;275.02;84.70;;;1.20;81.30;;;;;;5071337;28;20056;-74
2020/12/01 11:36:36;;;;;;;148.02;47.45;;;1.20;79.30;;;;;;5071438;28;20077;-75
2020/12/01 11:39:05;;;;;;;38.15;17.70;;;1.20;80.70;;;;;;5072295;28;20462;-75
2020/12/01 11:41:31;;;;;;;29.75;13.02;;;1.20;80.70;;;;;;5072741;28;20533;-74
2020/12/01 11:43:57;;;;;;;32.85;13.88;;;1.20;80.50;;;;;;5071525;28;20111;-75
2020/12/01 11:46:22;;;;;;;26.50;12.75;;;1.20;81.00;;;;;;5070414;28;20035;-74
2020/12/01 11:48:48;;;;;;;33.90;13.70;;;1.20;82.60;;;;;;5071379;28;20020;-75
2020/12/01 11:51:15;;;;;;;37.42;15.48;;;1.20;82.30;;;;;;5072607;28;20449;-75
2020/12/01 11:53:41;;;;;;;24.42;11.05;;;1.30;83.10;;;;;;5072559;28;20081;-75
2020/12/01 11:56:08;;;;;;;36.72;14.95;;;1.30;79.70;;;;;;5072334;28;20050;-75
2020/12/01 11:58:34;;;;;;;30.67;13.27;;;1.30;81.00;;;;;;5071204;28;20029;-74
2020/12/01 12:01:00;;;;;;;37.75;15.18;;;1.30;79.50;;;;;;5072688;28;20501;-75
2020/12/01 12:03:25;;;;;;;43.80;16.55;;;1.30;81.80;;;;;;5071005;28;20389;-75
2020/12/01 12:05:51;;;;;;;45.33;19.45;;;1.40;82.50;;;;;;5071094;28;20503;-76
2020/12/01 12:08:17;;;;;;;44.22;17.38;;;1.30;81.50;;;;;;5072046;28;20024;-75
2020/12/01 12:10:42;;;;;;;34.70;13.00;;;1.30;78.80;;;;;;5072201;28;20099;-75
2020/12/01 12:13:08;;;;;;;28.52;12.45;;;1.30;79.90;;;;;;5070892;28;20024;-75
2020/12/01 12:15:34;;;;;;;28.75;12.95;;;1.30;80.10;;;;;;5072263;28;20100;-76
2020/12/01 12:17:59;;;;;;;24.98;11.93;;;1.30;79.00;;;;;;5072060;28;20020;-75
2020/12/01 12:20:25;;;;;;;23.48;13.20;;;1.30;79.10;;;;;;5072163;28;20029;-74
2020/12/01 12:22:51;;;;;;;24.00;11.35;;;1.30;80.80;;;;;;5070538;28;20414;-74
2020/12/01 12:25:16;;;;;;;31.08;14.43;;;1.30;80.60;;;;;;5072199;28;20017;-75
2020/12/01 12:27:42;;;;;;;25.35;12.23;;;1.30;80.20;;;;;;5072177;28;20048;-75
2020/12/01 12:30:08;;;;;;;23.98;12.50;;;1.30;81.10;;;;;;5071689;28;20459;-75
2020/12/01 12:32:34;;;;;;;24.70;11.95;;;1.20;79.40;;;;;;5071806;28;20028;-74
2020/12/01 12:34:59;;;;;;;21.05;11.50;;;1.20;81.40;;;;;;5070715;28;20024;-75
2020/12/01 12:37:25;;;;;;;29.00;14.13;;;1.20;82.40;;;;;;5070676;28;20032;-74
2020/12/01 12:39:51;;;;;;;31.50;13.63;;;1.20;81.10;;;;;;5071915;28;20032;-74
2020/12/01 12:42:16;;;;;;;26.75;12.77;;;1.20;80.70;;;;;;5072025;28;20379;-74
2020/12/01 12:44:42;;;;;;;27.67;13.02;;;1.20;79.60;;;;;;5070454;28;20029;-75
2020/12/01 12:47:08;;;;;;;22.85;12.85;;;1.20;79.90;;;;;;5078252;28;20473;-74
2020/12/01 12:49:34;;;;;;;27.38;11.93;;;1.20;80.40;;;;;;5077266;28;20066;-75
2020/12/01 12:51:59;;;;;;;29.05;13.95;;;1.20;78.40;;;;;;5069670;28;20028;-75
2020/12/01 12:54:25;;;;;;;18.40;10.95;;;1.20;81.30;;;;;;5071576;28;20044;-74
2020/12/01 12:56:50;;;;;;;25.45;13.02;;;1.10;79.60;;;;;;5071580;28;20060;-74
2020/12/01 12:59:16;;;;;;;28.55;11.63;;;1.20;81.00;;;;;;5074672;28;20033;-75
2020/12/01 13:01:42;;;;;;;27.15;13.20;;;1.10;78.10;;;;;;5075639;28;20478;-74
2020/12/01 13:04:07;;;;;;;25.95;12.57;;;1.10;80.20;;;;;;5070447;28;20074;-75
2020/12/01 13:06:33;;;;;;;26.70;13.15;;;1.10;80.30;;;;;;5071609;28;20024;-75
2020/12/01 13:08:59;;;;;;;27.55;13.13;;;1.10;81.80;;;;;;5075395;28;20020;-74
2020/12/01 13:11:24;;;;;;;30.58;15.95;;;1.10;81.00;;;;;;5079816;28;20036;-74
2020/12/01 13:13:50;;;;;;;30.30;15.13;;;1.10;82.20;;;;;;5078733;28;20031;-74
2020/12/01 13:16:18;;;;;;;37.22;18.08;;;1.00;81.80;;;;;;5082138;28;20028;-75
2020/12/01 13:18:43;;;;;;;37.35;15.18;;;1.00;81.70;;;;;;5075132;28;20017;-75
2020/12/01 13:21:09;;;;;;;26.67;14.43;;;1.00;80.20;;;;;;5086556;28;20039;-75
2020/12/01 13:23:35;;;;;;;33.38;14.30;;;1.00;81.90;;;;;;5087258;28;20035;-75
2020/12/01 13:26:01;;;;;;;29.38;14.38;;;1.00;83.40;;;;;;5089885;28;20035;-75
2020/12/01 13:28:26;;;;;;;36.35;17.77;;;0.90;82.30;;;;;;5087643;28;20143;-75
2020/12/01 13:30:52;;;;;;;45.58;22.02;;;0.90;83.00;;;;;;5086887;28;20025;-75
2020/12/01 13:33:18;;;;;;;32.95;14.88;;;0.90;83.50;;;;;;5071797;28;20070;-74
2020/12/01 13:35:45;;;;;;;27.95;14.10;;;0.80;82.50;;;;;;5073839;28;20032;-75